»·PEaware :: WAT540 KBUR-KFUL

WAT540 :: KBUR-KFUL

FLIGHT INFORMATION

Flight Status: Arrived
Operator:
Walker Air Transport
More flights by this operator :: More flights under this callsign
Pilot: Michael R. (33632)
Aircraft: GRUMMAN AERO AA5 CHEETAH TIGER
(AA5)
More flights by this aircraft type
Origin: KBUR Bob Hope-Burbank
United States
Destination: KFUL Fullerton Mun
United States
More flights between these airports :: More routes between these airports
Route:
File this flight plan on PilotEdge
Remarks:
Altitude:
(Current/Filed)
3,500ft
Speed:
(Current/Filed)
130kts
Departed: 11-Feb-21 08:12 AM
Arrived: 11-Feb-21 08:30 AM
Distance/Time
Traveled:
27nm/0:18
Distance/Time
To Go:
Arrived

Flight Plot

Page will automatically refresh every two minutes.


Map Options




Map Legend


Flown Route
Filed Route
Departure Airport
Arrival Airport
Navaid (VOR, NDB)
Fix

Horizontal Profiles

Position Reports

Time Latitude Longitude Heading Altitude Ground
Speed
11-Feb-21 07:13 34.200211 -118.358866 280 719ft 0kts
11-Feb-21 07:14 34.200211 -118.358866 280 719ft 0kts
11-Feb-21 07:14 34.200211 -118.358866 280 719ft 0kts
11-Feb-21 07:16 34.200211 -118.358866 280 719ft 0kts
11-Feb-21 07:16 34.200211 -118.358866 280 719ft 0kts
11-Feb-21 07:18 34.200211 -118.358866 280 719ft 0kts
11-Feb-21 07:19 34.200211 -118.358866 280 719ft 0kts
11-Feb-21 07:19 34.200211 -118.358866 280 719ft 0kts
11-Feb-21 07:21 34.200211 -118.358866 280 719ft 0kts
11-Feb-21 07:22 34.200211 -118.358866 280 719ft 0kts
11-Feb-21 07:22 34.200211 -118.358866 280 719ft 0kts
11-Feb-21 07:23 34.200211 -118.358866 280 719ft 0kts
11-Feb-21 07:24 34.200211 -118.358866 280 719ft 0kts
11-Feb-21 07:25 34.200211 -118.358866 280 719ft 0kts
11-Feb-21 07:26 34.200211 -118.358866 280 719ft 0kts
11-Feb-21 07:27 34.200211 -118.358866 280 719ft 0kts
11-Feb-21 07:28 34.200211 -118.358866 280 719ft 0kts
11-Feb-21 07:29 34.200211 -118.358866 280 719ft 0kts
11-Feb-21 07:30 34.200211 -118.358866 280 719ft 0kts
11-Feb-21 07:31 34.200211 -118.358866 280 719ft 0kts
11-Feb-21 07:32 34.200211 -118.358866 280 719ft 0kts
11-Feb-21 07:33 34.200211 -118.358866 280 719ft 0kts
11-Feb-21 07:34 34.200211 -118.358866 280 719ft 0kts
11-Feb-21 07:35 34.200211 -118.358866 280 719ft 0kts
11-Feb-21 07:36 34.200211 -118.358866 280 719ft 0kts
11-Feb-21 07:37 34.200211 -118.358866 280 719ft 0kts
11-Feb-21 07:38 34.200211 -118.358866 280 719ft 0kts
11-Feb-21 07:39 34.200211 -118.358866 280 719ft 0kts
11-Feb-21 07:40 34.200211 -118.358866 280 719ft 0kts
11-Feb-21 07:41 34.200211 -118.358866 280 719ft 0kts
11-Feb-21 07:42 34.200211 -118.358866 280 719ft 0kts
11-Feb-21 07:43 34.200211 -118.358866 280 719ft 0kts
11-Feb-21 07:44 34.200211 -118.358866 280 719ft 0kts
11-Feb-21 07:45 34.200211 -118.358866 280 719ft 0kts
11-Feb-21 07:46 34.200211 -118.358866 280 719ft 0kts
11-Feb-21 07:47 34.200211 -118.358866 280 719ft 0kts
11-Feb-21 07:48 34.200211 -118.358866 280 719ft 0kts
11-Feb-21 07:49 34.200211 -118.358866 280 719ft 0kts
11-Feb-21 07:50 34.200211 -118.358866 280 719ft 0kts
11-Feb-21 07:51 34.200211 -118.358866 280 719ft 0kts
11-Feb-21 07:52 34.200211 -118.358866 280 719ft 0kts
11-Feb-21 07:53 34.200211 -118.358866 280 719ft 0kts
11-Feb-21 07:54 34.200211 -118.358866 280 719ft 0kts
11-Feb-21 07:55 34.200211 -118.358866 280 719ft 0kts
11-Feb-21 07:56 34.200211 -118.358866 280 719ft 0kts
11-Feb-21 07:57 34.200211 -118.358866 280 719ft 0kts
11-Feb-21 07:58 34.200211 -118.358866 280 719ft 0kts
11-Feb-21 07:59 34.200211 -118.358866 280 719ft 0kts
11-Feb-21 08:00 34.200211 -118.358866 280 719ft 0kts
11-Feb-21 08:01 34.200211 -118.358866 280 719ft 0kts
11-Feb-21 08:02 34.200211 -118.358866 280 719ft 0kts
11-Feb-21 08:03 34.200211 -118.358866 280 719ft 0kts
11-Feb-21 08:04 34.200211 -118.358866 280 719ft 0kts
11-Feb-21 08:05 34.200211 -118.358866 280 719ft 0kts
11-Feb-21 08:06 34.200177 -118.358902 191 719ft 3kts
11-Feb-21 08:07 34.200723 -118.358398 348 720ft 10kts
11-Feb-21 08:08 34.204547 -118.359464 347 735ft 18kts
11-Feb-21 08:09 34.209384 -118.360807 346 757ft 13kts
11-Feb-21 08:10 34.211464 -118.361255 31 765ft 0kts
11-Feb-21 08:11 34.208974 -118.359537 168 755ft 68kts
11-Feb-21 08:12 34.186626 -118.355742 167 1524ft 87kts
11-Feb-21 08:13 34.176347 -118.329762 102 2261ft 100kts
11-Feb-21 08:14 34.169351 -118.292278 101 2490ft 123kts
11-Feb-21 08:15 34.163062 -118.251100 94 2786ft 128kts
11-Feb-21 08:16 34.162366 -118.207520 90 3240ft 133kts
11-Feb-21 08:17 34.157061 -118.162581 116 3499ft 141kts
11-Feb-21 08:18 34.135617 -118.123560 124 3494ft 136kts
11-Feb-21 08:19 34.114395 -118.086294 124 3494ft 134kts
11-Feb-21 08:20 34.093337 -118.049237 124 3494ft 133kts
11-Feb-21 08:21 34.065002 -118.022197 154 3495ft 133kts
11-Feb-21 08:22 34.030660 -118.005308 158 3495ft 133kts
11-Feb-21 08:23 33.996074 -117.988398 157 3413ft 139kts
11-Feb-21 08:24 33.960182 -117.973379 161 2855ft 130kts
11-Feb-21 08:25 33.927231 -117.960689 164 2214ft 119kts
11-Feb-21 08:26 33.898588 -117.951527 169 1579ft 86kts
11-Feb-21 08:27 33.878005 -117.954527 231 765ft 77kts
11-Feb-21 08:28 33.872455 -117.977599 257 94ft 60kts
11-Feb-21 08:29 33.871529 -117.980210 79 90ft 9kts
11-Feb-21 08:30 33.871102 -117.979037 268 91ft 0kts

Navigation Log

Ident Type
Flight plan parsing failed, navigation log unavailable